Mount Solon, Virginia
Current Conditions -  °F | °C
As of 8:55 AM on Friday 24 Oct 2014 (Local Time) from KVBW Reporting Station
Clear Clear  
Wind Chill: 42°   Ceiling: Unl
Heat Index: 42°   Visibility: 10mi
Dew Point: 40°   Wind: 3mph
Humidity: 94%   Direction: 300°WNW
Pressure: 30.06"   Gusts: NA
Location:  38.35°N, 79.08°W
Report Text: KVBW 241255Z AUTO 30003KT 10SM CLR 06/05 A3006 RMK AO2 T00550046
Loading
Personal Weather Stations






























Interactive Weather Map
Tropical Storm Tracking
New forecast layout! Learn more

10-Day Weather Forecast

Advertisements
Track Severe Weather on mobile